Terminal Aerodrome Forecast
Issued by NWS Topeka, KS

Home | Current Version | Previous Version | Text Only | Print | Product List | Glossary On
Versions: 1 2 3 4 5 6 7 8 9 10 11 12 13 14 15 16 17 18 19 20 21 22 23 24 25 26
000
FTUS43 KTOP 062000 AAA
TAFTOP
TAF AMD
KTOP 062019Z 0620/0718 17020G32KT P6SM BKN025
     FM070000 16017G28KT P6SM BKN050
     FM070500 16015KT P6SM VCTS BKN040CB
     FM070900 18014G20KT P6SM SCT030 BKN050=

USA.gov is the U.S. government's official web portal to all federal, state and local government web resources and services.